sensor_id;sensor_type;location;lat;lon;timestamp;pressure;altitude;pressure_sealevel;temperature;humidity
63665;BME280;49820;33.966;73.390;2023-03-03T02:54:02;79607.06;;;9.60;100.00
63665;BME280;49820;33.966;73.390;2023-03-03T02:56:33;79599.59;;;9.78;100.00
63665;BME280;49820;33.966;73.390;2023-03-03T02:59:03;79589.38;;;10.05;100.00
63665;BME280;49820;33.966;73.390;2023-03-03T03:01:38;79595.16;;;10.30;100.00
63665;BME280;49820;33.966;73.390;2023-03-03T03:04:17;79597.53;;;10.60;100.00
63665;BME280;49820;33.966;73.390;2023-03-03T03:06:49;79612.59;;;10.90;100.00
63665;BME280;49820;33.966;73.390;2023-03-03T03:09:21;79600.56;;;10.89;100.00
63665;BME280;49820;33.966;73.390;2023-03-03T03:11:53;79604.19;;;11.23;100.00
63665;BME280;49820;33.966;73.390;2023-03-03T03:14:25;79620.31;;;11.68;96.41
63665;BME280;49820;33.966;73.390;2023-03-03T03:16:55;79609.03;;;11.61;96.70
63665;BME280;49820;33.966;73.390;2023-03-03T03:19:27;79629.78;;;11.61;89.90
63665;BME280;49820;33.966;73.390;2023-03-03T03:22:00;79624.69;;;11.42;94.15
63665;BME280;49820;33.966;73.390;2023-03-03T03:24:32;79600.97;;;11.65;81.54
63665;BME280;49820;33.966;73.390;2023-03-03T03:27:05;79618.09;;;11.87;87.93
63665;BME280;49820;33.966;73.390;2023-03-03T03:29:34;79622.53;;;12.04;89.54
63665;BME280;49820;33.966;73.390;2023-03-03T03:32:04;79628.03;;;12.39;90.09
63665;BME280;49820;33.966;73.390;2023-03-03T03:34:35;79624.72;;;12.37;86.30
63665;BME280;49820;33.966;73.390;2023-03-03T03:37:04;79629.47;;;12.75;87.70
63665;BME280;49820;33.966;73.390;2023-03-03T03:39:34;79636.41;;;12.60;82.78
63665;BME280;49820;33.966;73.390;2023-03-03T03:42:04;79636.03;;;12.82;86.95
63665;BME280;49820;33.966;73.390;2023-03-03T03:44:34;79638.81;;;12.78;80.51
63665;BME280;49820;33.966;73.390;2023-03-03T03:47:04;79651.59;;;13.15;83.80
63665;BME280;49820;33.966;73.390;2023-03-03T03:49:33;79640.69;;;13.25;80.07
63665;BME280;49820;33.966;73.390;2023-03-03T03:52:03;79622.31;;;13.00;79.18
63665;BME280;49820;33.966;73.390;2023-03-03T03:54:33;79630.00;;;13.60;76.74
63665;BME280;49820;33.966;73.390;2023-03-03T03:57:03;79643.09;;;13.41;76.52
63665;BME280;49820;33.966;73.390;2023-03-03T03:59:34;79646.63;;;13.66;76.73
63665;BME280;49820;33.966;73.390;2023-03-03T04:02:04;79634.25;;;13.47;76.39
63665;BME280;49820;33.966;73.390;2023-03-03T04:04:34;79649.56;;;13.87;68.98
63665;BME280;49820;33.966;73.390;2023-03-03T04:07:04;79637.50;;;13.53;71.96
63665;BME280;49820;33.966;73.390;2023-03-03T04:09:34;79642.13;;;13.57;74.79
63665;BME280;49820;33.966;73.390;2023-03-03T04:12:04;79643.06;;;13.43;71.44
63665;BME280;49820;33.966;73.390;2023-03-03T04:14:34;79639.09;;;13.38;73.62
63665;BME280;49820;33.966;73.390;2023-03-03T04:17:04;79658.41;;;13.82;79.37
63665;BME280;49820;33.966;73.390;2023-03-03T04:19:33;79619.88;;;13.27;74.45
63665;BME280;49820;33.966;73.390;2023-03-03T04:22:04;79648.28;;;13.51;81.65
63665;BME280;49820;33.966;73.390;2023-03-03T04:24:35;79653.47;;;13.22;75.04
63665;BME280;49820;33.966;73.390;2023-03-03T04:27:04;79630.50;;;13.31;78.31
63665;BME280;49820;33.966;73.390;2023-03-03T04:29:33;79644.53;;;13.36;78.58
63665;BME280;49820;33.966;73.390;2023-03-03T04:32:03;79636.38;;;13.40;80.13
63665;BME280;49820;33.966;73.390;2023-03-03T04:34:32;79642.88;;;13.53;76.82
63665;BME280;49820;33.966;73.390;2023-03-03T04:37:04;79668.31;;;13.56;76.72
63665;BME280;49820;33.966;73.390;2023-03-03T04:39:33;79657.38;;;13.66;84.86
63665;BME280;49820;33.966;73.390;2023-03-03T04:42:03;79657.53;;;13.58;82.26
63665;BME280;49820;33.966;73.390;2023-03-03T04:44:32;79658.22;;;13.57;82.06
63665;BME280;49820;33.966;73.390;2023-03-03T04:47:02;79651.56;;;13.17;76.26
63665;BME280;49820;33.966;73.390;2023-03-03T04:49:31;79670.81;;;12.88;81.83
63665;BME280;49820;33.966;73.390;2023-03-03T04:52:01;79682.06;;;12.54;78.97
63665;BME280;49820;33.966;73.390;2023-03-03T04:54:30;79681.69;;;11.86;81.47
63665;BME280;49820;33.966;73.390;2023-03-03T04:57:00;79683.19;;;11.75;79.24
63665;BME280;49820;33.966;73.390;2023-03-03T04:59:29;79676.47;;;11.74;85.74
63665;BME280;49820;33.966;73.390;2023-03-03T05:01:59;79684.63;;;11.62;85.03
63665;BME280;49820;33.966;73.390;2023-03-03T05:04:28;79684.66;;;11.60;89.39
63665;BME280;49820;33.966;73.390;2023-03-03T05:06:57;79657.41;;;11.45;91.40
63665;BME280;49820;33.966;73.390;2023-03-03T05:09:27;79663.38;;;11.50;91.20
63665;BME280;49820;33.966;73.390;2023-03-03T05:11:56;79668.41;;;11.76;91.81
63665;BME280;49820;33.966;73.390;2023-03-03T05:14:26;79673.41;;;11.51;86.61
63665;BME280;49820;33.966;73.390;2023-03-03T05:16:55;79675.81;;;11.73;90.14
63665;BME280;49820;33.966;73.390;2023-03-03T05:19:25;79666.00;;;11.54;85.85
63665;BME280;49820;33.966;73.390;2023-03-03T05:21:54;79676.09;;;12.04;83.75
63665;BME280;49820;33.966;73.390;2023-03-03T05:24:23;79671.09;;;12.25;80.94
63665;BME280;49820;33.966;73.390;2023-03-03T05:26:53;79672.81;;;12.47;79.73
63665;BME280;49820;33.966;73.390;2023-03-03T05:29:23;79690.94;;;12.42;82.70
63665;BME280;49820;33.966;73.390;2023-03-03T05:31:52;79688.88;;;12.90;87.69
63665;BME280;49820;33.966;73.390;2023-03-03T05:34:21;79679.16;;;13.13;84.65
63665;BME280;49820;33.966;73.390;2023-03-03T05:36:50;79685.31;;;13.04;80.08
63665;BME280;49820;33.966;73.390;2023-03-03T05:39:20;79680.41;;;13.16;80.03
63665;BME280;49820;33.966;73.390;2023-03-03T05:41:49;79684.38;;;12.78;78.97
63665;BME280;49820;33.966;73.390;2023-03-03T05:44:18;79683.66;;;13.23;78.39
63665;BME280;49820;33.966;73.390;2023-03-03T05:46:48;79677.72;;;13.55;77.45
63665;BME280;49820;33.966;73.390;2023-03-03T05:49:19;79671.44;;;13.69;73.13
63665;BME280;49820;33.966;73.390;2023-03-03T05:51:49;79678.31;;;14.28;78.67
63665;BME280;49820;33.966;73.390;2023-03-03T05:54:18;79681.56;;;14.34;71.40
63665;BME280;49820;33.966;73.390;2023-03-03T05:56:48;79672.59;;;14.46;72.68
63665;BME280;49820;33.966;73.390;2023-03-03T05:59:19;79667.03;;;14.54;71.44
63665;BME280;49820;33.966;73.390;2023-03-03T06:01:49;79668.63;;;14.43;68.96
63665;BME280;49820;33.966;73.390;2023-03-03T06:04:18;79657.91;;;14.72;68.62
63665;BME280;49820;33.966;73.390;2023-03-03T06:06:47;79672.97;;;15.18;68.57
63665;BME280;49820;33.966;73.390;2023-03-03T06:09:19;79682.75;;;15.03;65.54
63665;BME280;49820;33.966;73.390;2023-03-03T06:11:49;79678.13;;;15.82;66.59
63665;BME280;49820;33.966;73.390;2023-03-03T06:14:22;79673.91;;;15.89;63.39
63665;BME280;49820;33.966;73.390;2023-03-03T06:16:53;79656.47;;;15.61;63.58
63665;BME280;49820;33.966;73.390;2023-03-03T06:19:23;79650.25;;;16.19;65.35
63665;BME280;49820;33.966;73.390;2023-03-03T06:21:53;79665.09;;;16.18;63.05
63665;BME280;49820;33.966;73.390;2023-03-03T06:24:24;79663.19;;;17.53;60.49
63665;BME280;49820;33.966;73.390;2023-03-03T06:26:58;79666.13;;;17.68;60.64
63665;BME280;49820;33.966;73.390;2023-03-03T06:29:28;79660.34;;;17.13;55.53
63665;BME280;49820;33.966;73.390;2023-03-03T06:31:57;79659.03;;;17.56;60.02
63665;BME280;49820;33.966;73.390;2023-03-03T06:34:27;79659.81;;;18.75;59.33
63665;BME280;49820;33.966;73.390;2023-03-03T06:36:56;79642.06;;;18.80;54.97
63665;BME280;49820;33.966;73.390;2023-03-03T06:39:25;79640.09;;;18.00;60.13
63665;BME280;49820;33.966;73.390;2023-03-03T06:41:54;79645.06;;;17.49;56.47
63665;BME280;49820;33.966;73.390;2023-03-03T06:44:24;79645.19;;;19.24;57.81
63665;BME280;49820;33.966;73.390;2023-03-03T06:46:55;79646.69;;;19.38;54.64
63665;BME280;49820;33.966;73.390;2023-03-03T06:49:27;79642.66;;;17.83;55.19
63665;BME280;49820;33.966;73.390;2023-03-03T06:51:58;79639.94;;;18.04;54.17
63665;BME280;49820;33.966;73.390;2023-03-03T06:54:29;79634.75;;;18.37;53.58
63665;BME280;49820;33.966;73.390;2023-03-03T06:57:01;79653.47;;;18.04;53.48
63665;BME280;49820;33.966;73.390;2023-03-03T06:59:36;79630.31;;;18.09;54.60
63665;BME280;49820;33.966;73.390;2023-03-03T07:02:12;79619.59;;;18.65;52.93
63665;BME280;49820;33.966;73.390;2023-03-03T07:04:43;79632.69;;;17.13;53.08
63665;BME280;49820;33.966;73.390;2023-03-03T07:07:23;79629.03;;;15.55;57.46
63665;BME280;49820;33.966;73.390;2023-03-03T07:09:55;79628.78;;;16.15;57.82
63665;BME280;49820;33.966;73.390;2023-03-03T07:12:27;79622.03;;;17.09;56.44
63665;BME280;49820;33.966;73.390;2023-03-03T07:15:22;79601.53;;;16.72;58.81
63665;BME280;49820;33.966;73.390;2023-03-03T07:17:55;79618.34;;;17.62;55.68
63665;BME280;49820;33.966;73.390;2023-03-03T07:20:35;79620.75;;;18.12;57.23
63665;BME280;49820;33.966;73.390;2023-03-03T07:23:20;79607.44;;;17.85;54.23
63665;BME280;49820;33.966;73.390;2023-03-03T07:25:53;79625.69;;;15.52;55.46
63665;BME280;49820;33.966;73.390;2023-03-03T07:28:28;79598.84;;;14.95;59.82
63665;BME280;49820;33.966;73.390;2023-03-03T07:30:57;79600.06;;;14.73;59.92
63665;BME280;49820;33.966;73.390;2023-03-03T07:33:33;79593.06;;;14.24;64.61
63665;BME280;49820;33.966;73.390;2023-03-03T07:36:05;79592.38;;;13.62;69.58
63665;BME280;49820;33.966;73.390;2023-03-03T07:38:39;79594.91;;;15.18;70.22
63665;BME280;49820;33.966;73.390;2023-03-03T07:41:15;79588.63;;;15.28;63.45
63665;BME280;49820;33.966;73.390;2023-03-03T07:43:49;79584.97;;;14.84;62.71
63665;BME280;49820;33.966;73.390;2023-03-03T07:46:27;79593.44;;;14.37;62.65
63665;BME280;49820;33.966;73.390;2023-03-03T07:48:58;79572.22;;;13.94;64.28
63665;BME280;49820;33.966;73.390;2023-03-03T07:51:37;79577.38;;;13.38;66.91
63665;BME280;49820;33.966;73.390;2023-03-03T07:54:39;79583.84;;;14.15;67.00
63665;BME280;49820;33.966;73.390;2023-03-03T07:59:52;79549.16;;;16.40;69.40
63665;BME280;49820;33.966;73.390;2023-03-03T08:02:36;79560.00;;;17.48;65.77
63665;BME280;49820;33.966;73.390;2023-03-03T08:07:49;79528.03;;;15.79;62.05
63665;BME280;49820;33.966;73.390;2023-03-03T08:10:46;79514.72;;;15.48;61.84
63665;BME280;49820;33.966;73.390;2023-03-03T08:13:21;79527.16;;;15.10;62.99
63665;BME280;49820;33.966;73.390;2023-03-03T08:16:17;79538.66;;;15.33;63.43
63665;BME280;49820;33.966;73.390;2023-03-03T08:18:50;79534.09;;;17.14;60.36
63665;BME280;49820;33.966;73.390;2023-03-03T08:21:23;79516.78;;;16.86;57.68
63665;BME280;49820;33.966;73.390;2023-03-03T08:23:54;79533.00;;;17.07;57.26
63665;BME280;49820;33.966;73.390;2023-03-03T08:26:24;79527.91;;;15.83;56.18
63665;BME280;49820;33.966;73.390;2023-03-03T08:28:54;79523.00;;;15.89;57.70
63665;BME280;49820;33.966;73.390;2023-03-03T08:31:23;79509.34;;;15.48;56.55
63665;BME280;49820;33.966;73.390;2023-03-03T08:34:08;79516.34;;;14.85;60.97
63665;BME280;49820;33.966;73.390;2023-03-03T08:36:37;79500.50;;;14.75;57.27
63665;BME280;49820;33.966;73.390;2023-03-03T08:39:06;79518.88;;;14.35;59.49
63665;BME280;49820;33.966;73.390;2023-03-03T08:41:37;79498.50;;;14.18;62.02
63665;BME280;49820;33.966;73.390;2023-03-03T08:44:10;79498.06;;;14.07;61.78
63665;BME280;49820;33.966;73.390;2023-03-03T08:46:40;79498.44;;;13.60;62.44
63665;BME280;49820;33.966;73.390;2023-03-03T08:49:09;79503.13;;;13.90;63.49
63665;BME280;49820;33.966;73.390;2023-03-03T08:51:39;79493.59;;;14.26;63.26
63665;BME280;49820;33.966;73.390;2023-03-03T08:54:08;79510.84;;;14.91;60.75
63665;BME280;49820;33.966;73.390;2023-03-03T08:56:37;79481.03;;;14.17;62.81
63665;BME280;49820;33.966;73.390;2023-03-03T08:59:07;79508.03;;;13.82;63.39
63665;BME280;49820;33.966;73.390;2023-03-03T09:01:36;79506.47;;;13.29;59.07
63665;BME280;49820;33.966;73.390;2023-03-03T09:04:06;79509.34;;;13.19;64.25
63665;BME280;49820;33.966;73.390;2023-03-03T09:06:35;79507.31;;;13.19;64.91
63665;BME280;49820;33.966;73.390;2023-03-03T09:09:05;79506.81;;;13.44;64.43
63665;BME280;49820;33.966;73.390;2023-03-03T09:11:35;79461.53;;;13.27;67.85
63665;BME280;49820;33.966;73.390;2023-03-03T09:14:11;79490.63;;;14.09;65.09
63665;BME280;49820;33.966;73.390;2023-03-03T09:16:49;79485.97;;;13.77;68.11
63665;BME280;49820;33.966;73.390;2023-03-03T09:19:31;79492.41;;;13.59;67.82
63665;BME280;49820;33.966;73.390;2023-03-03T09:22:24;79495.13;;;13.24;67.65
63665;BME280;49820;33.966;73.390;2023-03-03T09:24:57;79488.72;;;13.09;66.04
63665;BME280;49820;33.966;73.390;2023-03-03T09:27:30;79482.19;;;13.35;64.04
63665;BME280;49820;33.966;73.390;2023-03-03T09:30:35;79470.81;;;14.23;65.41
63665;BME280;49820;33.966;73.390;2023-03-03T09:33:28;79468.53;;;15.14;60.68
63665;BME280;49820;33.966;73.390;2023-03-03T09:38:52;79467.22;;;14.04;58.16
63665;BME280;49820;33.966;73.390;2023-03-03T09:41:29;79475.50;;;13.65;61.22
63665;BME280;49820;33.966;73.390;2023-03-03T09:55:58;79467.94;;;13.43;72.43
63665;BME280;49820;33.966;73.390;2023-03-03T10:01:35;79457.22;;;13.71;68.12
63665;BME280;49820;33.966;73.390;2023-03-03T10:10:05;79457.34;;;13.02;63.87
63665;BME280;49820;33.966;73.390;2023-03-03T10:13:07;79466.44;;;12.82;68.03
63665;BME280;49820;33.966;73.390;2023-03-03T10:24:38;79453.38;;;12.29;69.35
63665;BME280;49820;33.966;73.390;2023-03-03T10:33:15;79456.44;;;12.80;63.13
63665;BME280;49820;33.966;73.390;2023-03-03T10:36:32;79456.09;;;12.27;63.96
63665;BME280;49820;33.966;73.390;2023-03-03T10:42:15;79427.75;;;11.60;73.16
63665;BME280;49820;33.966;73.390;2023-03-03T10:45:12;79447.81;;;11.61;62.61
63665;BME280;49820;33.966;73.390;2023-03-03T10:48:26;79450.06;;;11.44;65.21
63665;BME280;49820;33.966;73.390;2023-03-03T10:54:04;79439.88;;;13.38;65.92
63665;BME280;49820;33.966;73.390;2023-03-03T11:02:39;79438.25;;;12.50;70.59
63665;BME280;49820;33.966;73.390;2023-03-03T11:10:35;79441.72;;;11.21;80.08
63665;BME280;49820;33.966;73.390;2023-03-03T11:13:38;79421.13;;;10.66;88.55
63665;BME280;49820;33.966;73.390;2023-03-03T11:22:12;79435.59;;;10.84;93.01
63665;BME280;49820;33.966;73.390;2023-03-03T11:36:43;79410.94;;;11.24;89.21
63665;BME280;49820;33.966;73.390;2023-03-03T11:39:19;79422.72;;;11.39;87.58
63665;BME280;49820;33.966;73.390;2023-03-03T11:44:51;79423.84;;;11.09;86.63
63665;BME280;49820;33.966;73.390;2023-03-03T11:50:25;79427.13;;;11.14;85.56
63665;BME280;49820;33.966;73.390;2023-03-03T11:53:26;79433.22;;;11.11;89.46
63665;BME280;49820;33.966;73.390;2023-03-03T11:56:48;79420.19;;;10.86;91.38
63665;BME280;49820;33.966;73.390;2023-03-03T12:16:20;79421.72;;;10.18;100.00
63665;BME280;49820;33.966;73.390;2023-03-03T12:19:27;79420.66;;;9.90;100.00
63665;BME280;49820;33.966;73.390;2023-03-03T12:22:20;79444.41;;;9.51;100.00
63665;BME280;49820;33.966;73.390;2023-03-03T12:28:01;79441.28;;;9.29;99.49
63665;BME280;49820;33.966;73.390;2023-03-03T12:33:36;79438.22;;;8.96;100.00
63665;BME280;49820;33.966;73.390;2023-03-03T12:39:05;79444.09;;;9.08;99.58
63665;BME280;49820;33.966;73.390;2023-03-03T12:49:40;79443.72;;;8.71;100.00
63665;BME280;49820;33.966;73.390;2023-03-03T13:01:25;79451.56;;;7.63;100.00
63665;BME280;49820;33.966;73.390;2023-03-03T13:15:19;79451.06;;;7.04;100.00
63665;BME280;49820;33.966;73.390;2023-03-03T13:20:58;79461.66;;;7.06;100.00
63665;BME280;49820;33.966;73.390;2023-03-03T13:26:46;79460.38;;;6.87;100.00
63665;BME280;49820;33.966;73.390;2023-03-03T13:29:29;79468.34;;;6.67;100.00
63665;BME280;49820;33.966;73.390;2023-03-03T13:32:22;79478.97;;;6.46;100.00
63665;BME280;49820;33.966;73.390;2023-03-03T13:37:54;79474.97;;;6.35;100.00
63665;BME280;49820;33.966;73.390;2023-03-03T13:40:39;79473.63;;;6.20;100.00
63665;BME280;49820;33.966;73.390;2023-03-03T13:45:56;79461.63;;;5.95;100.00
63665;BME280;49820;33.966;73.390;2023-03-03T14:11:15;79482.13;;;5.82;100.00
63665;BME280;49820;33.966;73.390;2023-03-03T14:22:37;79488.72;;;5.69;100.00
63665;BME280;49820;33.966;73.390;2023-03-03T14:25:11;79472.75;;;5.51;100.00
63665;BME280;49820;33.966;73.390;2023-03-03T14:35:41;79496.50;;;5.26;100.00
63665;BME280;49820;33.966;73.390;2023-03-03T14:38:17;79486.53;;;5.21;100.00
63665;BME280;49820;33.966;73.390;2023-03-03T14:40:47;79468.00;;;5.19;100.00
63665;BME280;49820;33.966;73.390;2023-03-03T14:49:04;79481.19;;;5.11;100.00
63665;BME280;49820;33.966;73.390;2023-03-03T14:51:44;79500.41;;;5.19;100.00
63665;BME280;49820;33.966;73.390;2023-03-03T14:54:25;79491.16;;;5.22;100.00
63665;BME280;49820;33.966;73.390;2023-03-03T14:57:02;79490.47;;;5.16;100.00
63665;BME280;49820;33.966;73.390;2023-03-03T14:59:36;79493.78;;;5.14;100.00
63665;BME280;49820;33.966;73.390;2023-03-03T15:04:47;79495.72;;;5.02;100.00
63665;BME280;49820;33.966;73.390;2023-03-03T15:07:36;79493.03;;;4.97;100.00
63665;BME280;49820;33.966;73.390;2023-03-03T15:10:07;79487.72;;;4.95;100.00
63665;BME280;49820;33.966;73.390;2023-03-03T15:12:40;79478.44;;;4.96;100.00
63665;BME280;49820;33.966;73.390;2023-03-03T15:15:20;79504.31;;;5.00;100.00
63665;BME280;49820;33.966;73.390;2023-03-03T15:17:56;79503.59;;;4.93;100.00
63665;BME280;49820;33.966;73.390;2023-03-03T15:23:54;79508.28;;;5.01;100.00
63665;BME280;49820;33.966;73.390;2023-03-03T15:29:53;79503.00;;;5.07;100.00
63665;BME280;49820;33.966;73.390;2023-03-03T15:32:44;79487.81;;;5.14;100.00
63665;BME280;49820;33.966;73.390;2023-03-03T15:35:33;79511.03;;;5.23;100.00
63665;BME280;49820;33.966;73.390;2023-03-03T15:38:17;79509.69;;;5.20;100.00
63665;BME280;49820;33.966;73.390;2023-03-03T15:41:07;79483.81;;;5.03;100.00
63665;BME280;49820;33.966;73.390;2023-03-03T15:46:54;79509.66;;;5.08;100.00
63665;BME280;49820;33.966;73.390;2023-03-03T16:00:56;79521.69;;;5.35;100.00
63665;BME280;49820;33.966;73.390;2023-03-03T16:03:38;79489.13;;;5.09;100.00
63665;BME280;49820;33.966;73.390;2023-03-03T16:09:20;79509.78;;;5.32;100.00
63665;BME280;49820;33.966;73.390;2023-03-03T16:12:19;79513.72;;;5.25;100.00
63665;BME280;49820;33.966;73.390;2023-03-03T16:23:46;79500.34;;;5.01;100.00
63665;BME280;49820;33.966;73.390;2023-03-03T16:26:31;79520.97;;;5.21;100.00
63665;BME280;49820;33.966;73.390;2023-03-03T16:34:53;79504.91;;;4.92;100.00
63665;BME280;49820;33.966;73.390;2023-03-03T16:37:33;79524.22;;;5.13;100.00
63665;BME280;49820;33.966;73.390;2023-03-03T16:46:21;79533.53;;;5.20;100.00
63665;BME280;49820;33.966;73.390;2023-03-03T16:52:09;79517.75;;;5.45;100.00
63665;BME280;49820;33.966;73.390;2023-03-03T16:54:49;79525.66;;;5.36;100.00
63665;BME280;49820;33.966;73.390;2023-03-03T17:00:58;79525.56;;;5.10;100.00
63665;BME280;49820;33.966;73.390;2023-03-03T17:06:33;79526.72;;;4.85;100.00
63665;BME280;49820;33.966;73.390;2023-03-03T17:09:29;79532.66;;;4.87;100.00
63665;BME280;49820;33.966;73.390;2023-03-03T17:12:36;79537.28;;;4.83;100.00
63665;BME280;49820;33.966;73.390;2023-03-03T17:24:14;79509.47;;;4.78;100.00
63665;BME280;49820;33.966;73.390;2023-03-03T17:27:06;79517.41;;;4.78;100.00
63665;BME280;49820;33.966;73.390;2023-03-03T17:32:38;79522.72;;;4.82;100.00
63665;BME280;49820;33.966;73.390;2023-03-03T17:41:13;79511.34;;;4.63;100.00
63665;BME280;49820;33.966;73.390;2023-03-03T17:46:51;79510.75;;;4.73;100.00
63665;BME280;49820;33.966;73.390;2023-03-03T17:52:20;79521.53;;;5.01;100.00
63665;BME280;49820;33.966;73.390;2023-03-03T17:55:28;79524.25;;;5.17;100.00
63665;BME280;49820;33.966;73.390;2023-03-03T18:01:11;79525.75;;;5.55;100.00
63665;BME280;49820;33.966;73.390;2023-03-03T18:03:58;79522.44;;;5.52;100.00
63665;BME280;49820;33.966;73.390;2023-03-03T18:06:57;79524.47;;;5.64;100.00
63665;BME280;49820;33.966;73.390;2023-03-03T18:13:11;79533.03;;;5.52;100.00
63665;BME280;49820;33.966;73.390;2023-03-03T18:19:08;79512.31;;;5.14;100.00
63665;BME280;49820;33.966;73.390;2023-03-03T18:30:19;79524.31;;;5.29;100.00
63665;BME280;49820;33.966;73.390;2023-03-03T18:40:59;79517.69;;;5.24;100.00
63665;BME280;49820;33.966;73.390;2023-03-03T18:43:48;79515.09;;;5.34;100.00
63665;BME280;49820;33.966;73.390;2023-03-03T18:49:11;79472.50;;;4.94;100.00
63665;BME280;49820;33.966;73.390;2023-03-03T19:12:52;79470.59;;;5.09;100.00
63665;BME280;49820;33.966;73.390;2023-03-03T19:23:45;79485.19;;;5.16;100.00
63665;BME280;49820;33.966;73.390;2023-03-03T19:26:28;79491.84;;;5.25;100.00
63665;BME280;49820;33.966;73.390;2023-03-03T19:47:08;79466.06;;;5.37;100.00
63665;BME280;49820;33.966;73.390;2023-03-03T20:29:17;79415.78;;;5.50;100.00
63665;BME280;49820;33.966;73.390;2023-03-03T20:48:14;79427.75;;;5.73;100.00
63665;BME280;49820;33.966;73.390;2023-03-03T21:06:15;79417.84;;;5.86;100.00
63665;BME280;49820;33.966;73.390;2023-03-03T21:08:52;79405.22;;;5.70;100.00
63665;BME280;49820;33.966;73.390;2023-03-03T21:14:00;79411.81;;;5.63;100.00
63665;BME280;49820;33.966;73.390;2023-03-03T21:16:40;79399.22;;;5.61;100.00
63665;BME280;49820;33.966;73.390;2023-03-03T21:19:11;79413.81;;;5.64;100.00
63665;BME280;49820;33.966;73.390;2023-03-03T21:21:42;79404.50;;;5.53;100.00
63665;BME280;49820;33.966;73.390;2023-03-03T21:24:14;79396.53;;;5.41;100.00
63665;BME280;49820;33.966;73.390;2023-03-03T21:26:58;79377.31;;;5.38;100.00
63665;BME280;49820;33.966;73.390;2023-03-03T21:32:00;79384.69;;;5.66;100.00
63665;BME280;49820;33.966;73.390;2023-03-03T21:34:41;79392.66;;;5.87;100.00
63665;BME280;49820;33.966;73.390;2023-03-03T21:37:42;79391.31;;;5.86;100.00
63665;BME280;49820;33.966;73.390;2023-03-03T21:40:18;79387.34;;;5.72;100.00
63665;BME280;49820;33.966;73.390;2023-03-03T21:42:53;79385.34;;;5.71;100.00
63665;BME280;49820;33.966;73.390;2023-03-03T21:45:25;79388.00;;;5.71;100.00
63665;BME280;49820;33.966;73.390;2023-03-03T21:47:54;79398.63;;;5.75;100.00
63665;BME280;49820;33.966;73.390;2023-03-03T21:50:29;79380.69;;;5.71;100.00
63665;BME280;49820;33.966;73.390;2023-03-03T21:53:00;79386.69;;;5.82;100.00
63665;BME280;49820;33.966;73.390;2023-03-03T21:55:30;79391.97;;;5.78;100.00
63665;BME280;49820;33.966;73.390;2023-03-03T21:57:59;79382.03;;;5.74;100.00
63665;BME280;49820;33.966;73.390;2023-03-03T22:00:28;79383.41;;;6.00;100.00
63665;BME280;49820;33.966;73.390;2023-03-03T22:02:57;79374.09;;;5.83;100.00
63665;BME280;49820;33.966;73.390;2023-03-03T22:05:27;79344.25;;;5.72;100.00
63665;BME280;49820;33.966;73.390;2023-03-03T22:07:57;79355.50;;;5.68;100.00
63665;BME280;49820;33.966;73.390;2023-03-03T22:10:26;79377.44;;;5.91;100.00
63665;BME280;49820;33.966;73.390;2023-03-03T22:12:55;79378.75;;;5.88;100.00
63665;BME280;49820;33.966;73.390;2023-03-03T22:15:24;79368.13;;;5.78;100.00
63665;BME280;49820;33.966;73.390;2023-03-03T22:17:54;79378.06;;;5.78;100.00
63665;BME280;49820;33.966;73.390;2023-03-03T22:20:24;79372.09;;;5.79;100.00
63665;BME280;49820;33.966;73.390;2023-03-03T22:22:53;79338.28;;;5.63;100.00
63665;BME280;49820;33.966;73.390;2023-03-03T22:25:22;79377.41;;;5.81;100.00
63665;BME280;49820;33.966;73.390;2023-03-03T22:27:51;79380.03;;;5.79;100.00
63665;BME280;49820;33.966;73.390;2023-03-03T22:30:20;79366.78;;;5.67;100.00
63665;BME280;49820;33.966;73.390;2023-03-03T22:32:49;79378.72;;;5.84;100.00
63665;BME280;49820;33.966;73.390;2023-03-03T22:35:22;79358.81;;;5.69;100.00
63665;BME280;49820;33.966;73.390;2023-03-03T22:37:51;79355.53;;;5.72;100.00
63665;BME280;49820;33.966;73.390;2023-03-03T22:40:20;79374.13;;;5.93;100.00
63665;BME280;49820;33.966;73.390;2023-03-03T22:42:49;79358.81;;;5.77;100.00
63665;BME280;49820;33.966;73.390;2023-03-03T22:45:18;79344.91;;;5.58;100.00
63665;BME280;49820;33.966;73.390;2023-03-03T22:47:47;79356.19;;;5.65;100.00
63665;BME280;49820;33.966;73.390;2023-03-03T22:50:17;79354.81;;;5.54;100.00
63665;BME280;49820;33.966;73.390;2023-03-03T22:52:46;79356.16;;;5.49;100.00
63665;BME280;49820;33.966;73.390;2023-03-03T22:55:15;79346.22;;;5.47;100.00
63665;BME280;49820;33.966;73.390;2023-03-03T22:57:45;79340.91;;;5.45;100.00
63665;BME280;49820;33.966;73.390;2023-03-03T23:00:14;79364.09;;;5.55;100.00
63665;BME280;49820;33.966;73.390;2023-03-03T23:02:44;79347.53;;;5.46;100.00
63665;BME280;49820;33.966;73.390;2023-03-03T23:05:13;79342.22;;;5.42;100.00
63665;BME280;49820;33.966;73.390;2023-03-03T23:07:43;79342.22;;;5.44;100.00
63665;BME280;49820;33.966;73.390;2023-03-03T23:10:12;79346.84;;;5.40;100.00
63665;BME280;49820;33.966;73.390;2023-03-03T23:12:41;79334.94;;;5.41;100.00
63665;BME280;49820;33.966;73.390;2023-03-03T23:15:11;79360.78;;;5.50;100.00
63665;BME280;49820;33.966;73.390;2023-03-03T23:17:44;79357.50;;;5.74;100.00
63665;BME280;49820;33.966;73.390;2023-03-03T23:20:18;79354.22;;;5.75;97.49
63665;BME280;49820;33.966;73.390;2023-03-03T23:22:47;79342.25;;;5.62;96.75
63665;BME280;49820;33.966;73.390;2023-03-03T23:25:19;79358.84;;;5.73;89.33
63665;BME280;49820;33.966;73.390;2023-03-03T23:27:51;79337.63;;;5.57;86.97
63665;BME280;49820;33.966;73.390;2023-03-03T23:30:21;79367.47;;;5.84;84.07
63665;BME280;49820;33.966;73.390;2023-03-03T23:32:51;79321.03;;;5.42;86.59
63665;BME280;49820;33.966;73.390;2023-03-03T23:35:20;79357.50;;;5.68;88.71